Time;durP1;ratioP1;P1;durP2;ratioP2;P2;SDS_P1;SDS_P2;PMS_P1;PMS_P2;Temp;Humidity;BMP_temperature;BMP_pressure;BME280_temperature;BME280_humidity;BME280_pressure;Samples;Min_cycle;Max_cycle;Signal;HPM_P1;HPM_P2
2023/08/01 05:51:31;;;;;;;10.00;3.42;;;14.20;99.90;;;;;;5923554;24;20121;-88
2023/08/01 05:57:00;;;;;;;11.38;3.42;;;14.80;99.90;;;;;;6152570;23;20731;-88
2023/08/01 06:13:14;;;;;;;10.57;3.55;;;14.80;99.90;;;;;;6107453;23;20033;-87
2023/08/01 06:31:00;;;;;;;9.23;3.03;;;15.70;99.90;;;;;;5955538;24;20024;-87
2023/08/01 06:37:54;;;;;;;9.85;2.80;;;14.30;99.90;;;;;;5953035;24;20470;-87
2023/08/01 06:41:30;;;;;;;8.75;2.58;;;14.70;99.90;;;;;;5873920;24;20029;-83
2023/08/01 06:43:58;;;;;;;8.25;2.90;;;14.50;99.90;;;;;;5896885;24;20411;-84
2023/08/01 06:47:01;;;;;;;8.75;3.20;;;14.60;99.90;;;;;;5895958;24;20405;-85
2023/08/01 06:49:29;;;;;;;12.35;3.80;;;14.60;99.90;;;;;;5897711;24;20068;-84
2023/08/01 06:55:36;;;;;;;12.32;4.38;;;14.80;99.90;;;;;;5953162;24;20020;-85
2023/08/01 07:01:10;;;;;;;;;;;;;;;;;;;;;
2023/08/01 07:03:56;;;;;;;10.93;4.57;;;15.20;99.90;;;;;;6142113;23;20459;-85
2023/08/01 07:10:48;;;;;;;9.25;3.67;;;15.30;99.90;;;;;;6008088;23;20112;-85
2023/08/01 07:13:21;;;;;;;11.63;4.13;;;15.20;99.90;;;;;;5984585;23;20024;-87
2023/08/01 07:16:09;;;;;;;11.20;3.75;;;16.00;99.90;;;;;;6008362;23;20445;-85
2023/08/01 07:38:31;;;;;;;10.23;3.38;;;15.10;99.90;;;;;;6064069;23;20053;-87
2023/08/01 07:47:14;;;;;;;10.70;3.55;;;15.60;99.90;;;;;;6126837;23;20033;-86
2023/08/01 07:50:49;;;;;;;9.98;3.08;;;15.80;99.90;;;;;;6127040;23;20068;-86
2023/08/01 07:58:14;;;;;;;8.57;3.10;;;16.00;99.90;;;;;;6124736;23;20064;-86
2023/08/01 08:00:40;;;;;;;8.88;2.50;;;15.80;99.90;;;;;;6098889;23;20022;-85
2023/08/01 08:03:18;;;;;;;10.10;3.10;;;15.60;99.90;;;;;;6125426;23;20093;-86
2023/08/01 08:06:00;;;;;;;10.02;2.92;;;15.50;99.90;;;;;;6051329;23;20443;-85
2023/08/01 08:08:55;;;;;;;8.80;2.60;;;15.50;99.90;;;;;;6126210;23;20447;-85
2023/08/01 08:11:53;;;;;;;9.35;3.28;;;15.50;99.90;;;;;;6026712;23;20010;-85
2023/08/01 08:14:21;;;;;;;12.48;3.30;;;15.60;99.90;;;;;;6070554;23;20021;-85
2023/08/01 08:16:56;;;;;;;10.43;3.20;;;15.50;99.90;;;;;;6127971;23;20100;-87
2023/08/01 08:19:29;;;;;;;9.77;2.83;;;15.80;99.90;;;;;;6127852;23;20633;-85
2023/08/01 08:21:58;;;;;;;10.57;3.30;;;16.40;99.90;;;;;;6128366;23;20084;-86
2023/08/01 08:24:51;;;;;;;9.23;3.38;;;15.40;99.90;;;;;;6150372;23;20101;-86
2023/08/01 08:27:32;;;;;;;10.23;3.33;;;16.10;99.90;;;;;;6128608;23;20017;-85
2023/08/01 08:30:30;;;;;;;10.30;3.30;;;15.50;99.90;;;;;;6155099;23;20021;-84
2023/08/01 08:33:12;;;;;;;10.23;3.33;;;15.40;99.90;;;;;;6128817;23;20021;-85
2023/08/01 08:35:38;;;;;;;11.23;3.15;;;15.80;99.90;;;;;;6128392;23;20024;-85
2023/08/01 08:38:10;;;;;;;10.07;3.40;;;15.60;99.90;;;;;;6153588;23;20018;-84
2023/08/01 09:19:35;;;;;;;11.50;3.55;;;15.50;99.90;;;;;;6095816;23;20394;-87
2023/08/01 09:22:42;;;;;;;11.18;3.83;;;15.70;99.90;;;;;;6123510;23;20133;-87
2023/08/01 09:25:33;;;;;;;10.50;4.10;;;15.60;99.90;;;;;;5949477;24;20016;-88
2023/08/01 10:05:53;;;;;;;9.18;3.15;;;15.30;99.90;;;;;;6145386;23;20026;-88
2023/08/01 10:13:36;;;;;;;;;;;;;;;;;;;;;
2023/08/01 10:17:21;;;;;;;9.23;3.50;;;15.70;99.90;;;;;;6124076;23;20025;-86
2023/08/01 10:20:39;;;;;;;11.30;3.40;;;15.60;99.90;;;;;;5996429;23;20022;-86
2023/08/01 10:34:39;;;;;;;8.90;3.25;;;16.70;99.90;;;;;;5956213;24;20185;-87
2023/08/01 11:13:14;;;;;;;10.77;2.70;;;17.70;99.90;;;;;;6122155;23;20072;-83
2023/08/01 11:16:39;;;;;;;;;;;;;;;;;;;;;
2023/08/01 11:19:51;;;;;;;10.55;2.90;;;17.60;99.90;;;;;;5935847;23;20026;-84
2023/08/01 11:22:29;;;;;;;10.05;2.70;;;17.80;99.90;;;;;;6098634;23;20057;-85
2023/08/01 11:24:54;;;;;;;8.23;2.45;;;18.40;99.90;;;;;;6098403;23;20017;-84
2023/08/01 11:27:20;;;;;;;9.30;2.40;;;18.20;99.90;;;;;;6099461;23;20096;-84
2023/08/01 11:29:55;;;;;;;8.15;2.30;;;18.00;99.90;;;;;;6101057;23;20022;-84
2023/08/01 11:32:38;;;;;;;8.00;2.25;;;17.70;99.90;;;;;;6099951;23;20517;-84
2023/08/01 11:35:07;;;;;;;9.68;2.30;;;17.50;99.90;;;;;;6099937;23;20024;-84
2023/08/01 11:37:33;;;;;;;7.85;2.40;;;17.20;99.90;;;;;;6100078;23;20014;-84
2023/08/01 11:40:12;;;;;;;7.22;2.05;;;17.10;99.90;;;;;;6099900;23;20018;-84
2023/08/01 11:42:38;;;;;;;6.65;2.10;;;16.90;99.90;;;;;;6099353;23;20022;-84
2023/08/01 11:45:13;;;;;;;8.10;2.50;;;16.70;99.90;;;;;;6100282;23;20342;-84
2023/08/01 11:47:47;;;;;;;9.43;2.47;;;16.70;99.90;;;;;;6099318;23;20018;-83
2023/08/01 11:54:13;;;;;;;10.63;3.08;;;16.60;99.90;;;;;;6100883;23;20417;-83
2023/08/01 11:57:02;;;;;;;8.90;2.60;;;16.70;99.90;;;;;;5978556;24;20402;-83
2023/08/01 11:59:32;;;;;;;8.98;2.85;;;16.80;99.90;;;;;;5875348;24;20105;-84
2023/08/01 12:02:27;;;;;;;10.90;3.05;;;16.90;99.90;;;;;;6010207;23;20086;-85
2023/08/01 12:04:54;;;;;;;8.70;2.63;;;16.90;99.90;;;;;;6015605;23;20061;-83
2023/08/01 12:07:44;;;;;;;9.95;2.95;;;17.10;99.90;;;;;;6079477;23;20362;-83
2023/08/01 12:10:30;;;;;;;8.55;2.38;;;17.20;99.90;;;;;;6129052;23;20072;-83
2023/08/01 12:13:07;;;;;;;8.40;2.45;;;17.10;99.90;;;;;;6128788;23;20009;-85
2023/08/01 12:15:39;;;;;;;8.25;2.50;;;17.40;99.90;;;;;;6155203;23;20076;-83
2023/08/01 12:18:05;;;;;;;10.40;2.47;;;17.20;99.90;;;;;;6128794;23;20084;-84
2023/08/01 12:21:01;;;;;;;11.05;2.88;;;17.50;99.90;;;;;;6155095;23;20068;-84
2023/08/01 12:23:27;;;;;;;9.45;2.70;;;17.40;99.90;;;;;;6128283;23;20018;-84
2023/08/01 12:26:10;;;;;;;8.57;2.60;;;18.30;99.90;;;;;;6093237;23;20013;-85
2023/08/01 12:29:01;;;;;;;8.32;2.33;;;18.40;99.90;;;;;;6127080;23;20052;-84
2023/08/01 12:31:27;;;;;;;8.82;2.35;;;18.30;99.90;;;;;;6127140;23;20017;-84
2023/08/01 12:34:08;;;;;;;7.35;2.08;;;18.60;99.90;;;;;;6128809;23;20040;-83
2023/08/01 12:36:34;;;;;;;10.35;2.30;;;18.80;99.90;;;;;;6128743;23;20097;-84
2023/08/01 12:39:11;;;;;;;7.20;2.28;;;18.90;99.90;;;;;;6127500;23;20060;-83
2023/08/01 12:41:38;;;;;;;9.60;2.20;;;18.70;99.90;;;;;;6099453;23;20025;-84
2023/08/01 12:44:15;;;;;;;8.95;2.40;;;18.70;99.90;;;;;;6099186;23;20022;-83
2023/08/01 12:46:41;;;;;;;9.05;2.50;;;18.60;99.90;;;;;;6099544;23;20065;-84
2023/08/01 12:49:07;;;;;;;7.45;2.40;;;18.60;99.90;;;;;;6100081;23;20097;-84
2023/08/01 12:51:51;;;;;;;8.82;2.45;;;18.80;99.90;;;;;;6098666;23;20113;-84
2023/08/01 12:54:28;;;;;;;;;;;19.10;99.90;;;;;;6126689;23;20081;-85
2023/08/01 12:56:57;;;;;;;8.02;2.40;;;19.20;99.90;;;;;;6100296;23;20288;-82
2023/08/01 12:59:26;;;;;;;9.10;2.30;;;19.20;99.90;;;;;;6099460;23;20469;-82
2023/08/01 13:02:12;;;;;;;8.77;2.17;;;19.10;99.90;;;;;;6135839;23;20021;-82
2023/08/01 13:04:38;;;;;;;9.05;2.40;;;19.40;99.90;;;;;;6128795;23;20017;-85
2023/08/01 13:07:14;;;;;;;;;;;;;;;;;;;;;
2023/08/01 13:09:53;;;;;;;10.60;2.45;;;19.50;99.90;;;;;;6121747;23;20017;-82
2023/08/01 13:12:18;;;;;;;7.32;2.20;;;19.20;99.90;;;;;;6154383;23;20017;-84
2023/08/01 13:15:04;;;;;;;8.20;2.03;;;18.90;99.90;;;;;;6128183;23;20064;-85
2023/08/01 13:17:51;;;;;;;8.95;2.53;;;18.30;99.90;;;;;;6129141;23;20072;-84
2023/08/01 13:20:17;;;;;;;8.77;2.50;;;18.00;99.90;;;;;;6155266;23;20021;-84
2023/08/01 13:22:47;;;;;;;9.70;2.67;;;18.00;99.90;;;;;;6155422;23;20442;-84
2023/08/01 13:25:38;;;;;;;9.40;2.88;;;17.90;99.90;;;;;;6155477;23;20025;-83
2023/08/01 13:28:03;;;;;;;10.25;3.00;;;17.60;99.90;;;;;;6127839;23;20397;-84
2023/08/01 13:30:29;;;;;;;9.90;2.60;;;17.80;99.90;;;;;;6128998;23;20515;-84
2023/08/01 13:32:55;;;;;;;9.70;2.85;;;17.80;99.90;;;;;;6127918;23;20070;-83
2023/08/01 13:38:58;;;;;;;10.45;2.80;;;18.20;99.90;;;;;;6128705;23;20353;-84
2023/08/01 13:41:42;;;;;;;9.93;2.72;;;18.90;99.90;;;;;;6128039;23;20549;-83
2023/08/01 13:44:25;;;;;;;9.13;2.60;;;19.30;99.90;;;;;;6128592;23;20019;-83
2023/08/01 13:47:16;;;;;;;9.25;2.60;;;19.40;99.90;;;;;;6154901;23;20029;-84
2023/08/01 13:49:41;;;;;;;8.30;2.85;;;19.50;99.90;;;;;;6153599;23;20105;-84
2023/08/01 13:52:07;;;;;;;9.15;2.55;;;19.90;99.90;;;;;;6155246;23;20048;-84
2023/08/01 13:54:33;;;;;;;8.50;2.55;;;19.60;99.90;;;;;;6127310;23;20018;-84
2023/08/01 13:57:01;;;;;;;9.15;2.38;;;19.50;99.90;;;;;;6128624;23;20018;-84
2023/08/01 13:59:48;;;;;;;10.35;2.72;;;19.40;99.90;;;;;;6155380;23;20024;-83
2023/08/01 14:02:19;;;;;;;7.55;2.30;;;19.30;99.90;;;;;;6122498;23;20446;-83
2023/08/01 14:04:45;;;;;;;9.93;2.60;;;19.30;99.90;;;;;;6123388;23;20022;-83
2023/08/01 14:07:10;;;;;;;8.18;2.20;;;19.40;99.90;;;;;;6126070;23;20097;-84
2023/08/01 14:09:51;;;;;;;11.27;2.40;;;19.30;99.90;;;;;;6123032;23;20018;-85
2023/08/01 14:12:35;;;;;;;8.90;2.50;;;19.80;99.90;;;;;;6124181;23;20018;-84
2023/08/01 14:15:28;;;;;;;9.00;2.55;;;19.90;99.90;;;;;;6126376;23;20095;-85
2023/08/01 14:18:02;;;;;;;8.10;1.95;;;19.90;99.90;;;;;;6127588;23;20018;-84
2023/08/01 14:20:28;;;;;;;7.50;2.08;;;19.40;99.90;;;;;;6128566;23;20106;-84
2023/08/01 14:22:54;;;;;;;7.72;2.10;;;19.20;99.90;;;;;;6153514;23;20029;-85
2023/08/01 14:25:35;;;;;;;7.68;1.90;;;19.10;99.90;;;;;;6128592;23;20017;-85
2023/08/01 14:28:13;;;;;;;9.40;2.58;;;18.70;99.90;;;;;;6128773;23;20014;-85
2023/08/01 14:30:39;;;;;;;9.30;2.20;;;18.40;99.90;;;;;;6128215;23;20041;-84
2023/08/01 14:33:23;;;;;;;7.95;2.17;;;18.70;99.90;;;;;;6128522;23;20018;-85
2023/08/01 14:35:49;;;;;;;;;;;18.80;99.90;;;;;;6129067;23;20064;-85
2023/08/01 14:38:15;;;;;;;5.80;1.90;;;18.90;99.90;;;;;;6154135;23;19991;-85
2023/08/01 14:40:49;;;;;;;8.43;2.30;;;19.10;99.90;;;;;;6154192;23;20068;-87
2023/08/01 14:43:27;;;;;;;8.85;1.70;;;19.40;99.90;;;;;;6127849;23;20014;-85
2023/08/01 14:46:05;;;;;;;6.38;1.75;;;19.40;99.90;;;;;;6128316;23;20025;-86
2023/08/01 14:48:56;;;;;;;7.55;1.85;;;19.30;99.90;;;;;;6155123;23;20020;-86
2023/08/01 14:51:24;;;;;;;6.78;1.77;;;19.30;99.90;;;;;;6127364;23;20028;-85
2023/08/01 14:56:54;;;;;;;6.65;2.22;;;19.30;99.90;;;;;;6095557;23;20033;-89
2023/08/01 15:04:33;;;;;;;7.40;1.70;;;19.20;99.90;;;;;;6135544;23;20026;-87
2023/08/01 15:10:05;;;;;;;2.92;1.50;;;18.70;99.90;;;;;;6132413;23;20498;-90
2023/08/01 15:13:05;;;;;;;8.07;1.70;;;18.40;99.90;;;;;;6107361;23;20025;-90
2023/08/01 15:15:41;;;;;;;6.85;1.85;;;18.60;99.90;;;;;;6045787;23;20054;-88
2023/08/01 15:27:48;;;;;;;6.03;1.80;;;19.40;99.90;;;;;;6100932;23;20489;-88
2023/08/01 15:30:32;;;;;;;5.57;1.80;;;19.20;99.90;;;;;;6100195;23;20096;-88
2023/08/01 15:33:25;;;;;;;;;;;;;;;;;;;;;
2023/08/01 15:41:56;;;;;;;4.43;1.60;;;19.50;99.90;;;;;;6125574;23;20033;-87
2023/08/01 15:44:31;;;;;;;4.80;1.50;;;19.70;99.90;;;;;;6126868;23;20018;-86
2023/08/01 15:50:08;;;;;;;5.20;1.58;;;19.20;99.90;;;;;;6101112;23;20076;-87
2023/08/01 15:52:37;;;;;;;5.82;1.63;;;19.10;99.90;;;;;;6100450;23;20018;-87
2023/08/01 15:55:03;;;;;;;7.90;2.10;;;19.00;99.90;;;;;;6099984;23;20040;-85
2023/08/01 15:57:35;;;;;;;6.85;2.00;;;18.80;99.90;;;;;;6100967;23;20526;-86
2023/08/01 16:00:06;;;;;;;6.32;1.70;;;18.50;99.90;;;;;;6100665;23;20324;-87
2023/08/01 16:02:34;;;;;;;6.82;2.10;;;18.50;99.90;;;;;;6100011;23;20022;-87
2023/08/01 16:05:00;;;;;;;7.03;1.85;;;18.30;99.90;;;;;;6126998;23;20381;-85
2023/08/01 16:07:35;;;;;;;8.43;1.90;;;17.90;99.90;;;;;;6100783;23;20065;-84
2023/08/01 16:10:01;;;;;;;6.47;1.90;;;17.50;99.90;;;;;;6099795;23;20046;-84
2023/08/01 16:12:36;;;;;;;5.97;1.90;;;17.20;99.90;;;;;;6101085;23;20025;-85
2023/08/01 16:15:01;;;;;;;6.88;2.20;;;17.00;99.90;;;;;;6126031;23;20018;-84
2023/08/01 16:17:30;;;;;;;8.20;2.22;;;16.80;99.90;;;;;;6100090;23;20435;-84
2023/08/01 16:20:30;;;;;;;8.15;2.25;;;16.80;99.90;;;;;;6126615;23;20041;-83
2023/08/01 16:22:56;;;;;;;7.70;2.35;;;16.60;99.90;;;;;;6099363;23;20513;-82
2023/08/01 16:25:22;;;;;;;8.07;2.33;;;16.60;99.90;;;;;;6100284;23;20018;-82
2023/08/01 16:27:48;;;;;;;8.05;2.50;;;16.60;99.90;;;;;;6126036;23;20530;-83
2023/08/01 16:30:19;;;;;;;9.18;3.25;;;16.70;99.90;;;;;;6099401;23;20018;-84
2023/08/01 16:33:00;;;;;;;9.95;2.70;;;16.90;99.90;;;;;;6100150;23;20054;-83
2023/08/01 16:35:31;;;;;;;11.13;3.00;;;16.90;99.90;;;;;;6100060;23;20454;-84
2023/08/01 16:38:14;;;;;;;8.40;2.72;;;16.70;99.90;;;;;;6098810;23;20017;-83
2023/08/01 16:41:06;;;;;;;9.88;2.80;;;16.90;99.90;;;;;;6122937;23;20097;-83
2023/08/01 16:43:34;;;;;;;8.32;2.67;;;16.80;99.90;;;;;;6098153;23;20029;-83
2023/08/01 16:46:02;;;;;;;8.50;3.00;;;17.40;99.90;;;;;;6126009;23;20010;-84
2023/08/01 16:48:28;;;;;;;9.55;2.60;;;16.60;99.90;;;;;;6103304;23;20065;-83
2023/08/01 16:51:00;;;;;;;8.82;2.60;;;16.60;99.90;;;;;;6122808;23;20395;-83
2023/08/01 16:53:46;;;;;;;8.68;2.50;;;16.40;99.90;;;;;;6126176;23;20025;-85
2023/08/01 16:56:12;;;;;;;8.15;2.38;;;16.90;99.90;;;;;;6154506;23;20125;-84
2023/08/01 16:58:53;;;;;;;8.07;2.40;;;16.50;99.90;;;;;;6127923;23;20450;-83
2023/08/01 17:01:19;;;;;;;8.93;2.70;;;16.30;99.90;;;;;;6128935;23;20028;-84
2023/08/01 17:03:53;;;;;;;7.78;2.72;;;16.30;99.90;;;;;;6128318;23;20017;-84
2023/08/01 17:06:22;;;;;;;7.10;2.33;;;16.30;99.90;;;;;;6128809;23;20018;-84
2023/08/01 17:09:13;;;;;;;8.15;2.70;;;16.30;99.90;;;;;;6128307;23;20014;-84
2023/08/01 17:11:44;;;;;;;8.18;3.03;;;16.00;99.90;;;;;;6127565;23;20017;-84
2023/08/01 17:14:10;;;;;;;8.23;2.47;;;16.20;99.90;;;;;;6154576;23;20013;-85
2023/08/01 17:17:16;;;;;;;9.02;2.63;;;16.20;99.90;;;;;;6153762;23;20382;-86
2023/08/01 17:20:36;;;;;;;;;;;;;;;;;;;;;
2023/08/01 17:23:27;;;;;;;;;;;;;;;;;;;;;
2023/08/01 17:27:01;;;;;;;7.85;2.80;;;16.60;99.90;;;;;;6114484;23;20017;-87
2023/08/01 17:37:39;;;;;;;8.57;2.50;;;16.80;99.90;;;;;;5952309;24;20027;-88
2023/08/01 17:40:08;;;;;;;6.75;2.15;;;16.60;99.90;;;;;;5927556;24;20021;-86
2023/08/01 17:46:05;;;;;;;8.93;2.78;;;16.40;99.90;;;;;;6011608;23;20054;-86
2023/08/01 17:48:36;;;;;;;7.38;2.35;;;16.50;99.90;;;;;;6011669;23;20380;-87
2023/08/01 17:51:07;;;;;;;8.93;2.60;;;16.70;99.90;;;;;;6010332;23;20087;-85
2023/08/01 17:56:23;;;;;;;8.00;2.50;;;17.00;99.90;;;;;;6139676;23;20082;-86
2023/08/01 17:59:42;;;;;;;9.63;2.42;;;17.20;99.90;;;;;;6155211;23;20022;-86
2023/08/01 18:02:10;;;;;;;9.82;2.42;;;17.30;99.90;;;;;;6127757;23;20446;-86
2023/08/01 18:05:40;;;;;;;;;;;;;;;;;;;;;
2023/08/01 18:08:44;;;;;;;7.88;2.63;;;16.80;99.90;;;;;;5999571;23;20056;-86
2023/08/01 18:11:57;;;;;;;12.18;2.83;;;16.50;99.90;;;;;;6008671;23;20020;-86
2023/08/01 18:18:09;;;;;;;;;;;;;;;;;;;;;
2023/08/01 18:24:36;;;;;;;8.77;2.30;;;16.40;99.90;;;;;;6091519;23;20021;-88
2023/08/01 18:27:39;;;;;;;7.85;2.50;;;16.50;99.90;;;;;;6126091;23;20273;-88
2023/08/01 18:30:31;;;;;;;8.60;2.40;;;16.50;99.90;;;;;;6124449;23;20017;-86
2023/08/01 18:37:06;;;;;;;;;;;;;;;;;;;;;
2023/08/01 18:43:53;;;;;;;9.05;2.50;;;16.30;99.90;;;;;;6129713;23;20021;-87
2023/08/01 18:50:00;;;;;;;9.05;2.72;;;16.40;99.90;;;;;;5986187;23;20099;-86
2023/08/01 18:52:55;;;;;;;;;;;;;;;;;;;;;
2023/08/01 18:59:04;;;;;;;9.82;3.15;;;16.30;99.90;;;;;;6152021;23;20035;-89
2023/08/01 19:05:16;;;;;;;7.90;2.60;;;16.40;99.90;;;;;;6007603;23;20026;-89
2023/08/01 19:11:29;;;;;;;;;;;;;;;;;;;;;
2023/08/01 19:21:07;;;;;;;10.02;2.65;;;16.20;99.90;;;;;;6155776;23;20024;-85
2023/08/01 19:24:13;;;;;;;9.00;2.60;;;16.10;99.90;;;;;;6156420;23;20436;-89
2023/08/01 19:33:07;;;;;;;8.73;2.80;;;15.90;99.90;;;;;;6147823;23;20040;-85
2023/08/01 19:41:16;;;;;;;10.48;3.20;;;15.80;99.90;;;;;;6149884;23;20048;-88
2023/08/01 21:17:27;;;;;;;12.05;4.57;;;15.10;99.90;;;;;;6136239;23;20100;-91
2023/08/01 21:28:41;;;;;;;12.43;4.70;;;15.20;99.90;;;;;;6120210;23;20041;-92
